createdAt,value
2019-02-10T00:02:03.145Z,13.90
2019-02-10T00:04:33.456Z,14.23
2019-02-10T00:07:03.741Z,13.25
2019-02-10T00:09:34.018Z,14.50
2019-02-10T00:12:05.230Z,13.60
2019-02-10T00:14:35.493Z,12.93
2019-02-10T00:17:05.844Z,12.95
2019-02-10T00:19:37.880Z,15.90
2019-02-10T00:22:10.226Z,15.38
2019-02-10T00:24:41.903Z,16.32
2019-02-10T00:27:12.592Z,15.80
2019-02-10T00:29:42.929Z,15.75
2019-02-10T00:32:13.243Z,13.90
2019-02-10T00:34:43.455Z,14.60
2019-02-10T00:37:14.791Z,14.07
2019-02-10T00:39:44.916Z,14.23
2019-02-10T00:42:15.362Z,14.45
2019-02-10T00:44:45.512Z,14.98
2019-02-10T00:47:15.674Z,15.53
2019-02-10T00:49:46.105Z,15.13
2019-02-10T00:52:16.482Z,15.03
2019-02-10T00:54:48.467Z,15.72
2019-02-10T00:57:18.920Z,15.98
2019-02-10T00:59:49.154Z,16.35
2019-02-10T01:02:19.421Z,14.83
2019-02-10T01:04:50.188Z,15.65
2019-02-10T01:07:20.410Z,15.65
2019-02-10T01:09:51.548Z,16.32
2019-02-10T01:12:22.065Z,16.73
2019-02-10T01:14:52.299Z,16.05
2019-02-10T01:17:22.582Z,16.25
2019-02-10T01:19:52.840Z,17.32
2019-02-10T01:22:23.892Z,16.70
2019-02-10T01:24:54.147Z,17.27
2019-02-10T01:27:24.426Z,18.40
2019-02-10T01:29:54.891Z,17.42
2019-02-10T01:32:25.059Z,17.60
2019-02-10T01:34:55.367Z,16.95
2019-02-10T01:37:25.618Z,19.35
2019-02-10T01:39:55.822Z,19.23
2019-02-10T01:42:27.786Z,19.65
2019-02-10T01:44:58.082Z,19.77
2019-02-10T01:47:28.396Z,20.70
2019-02-10T01:49:58.707Z,20.90
2019-02-10T01:52:28.960Z,20.65
2019-02-10T01:54:59.354Z,21.20
2019-02-10T01:57:29.636Z,20.35
2019-02-10T01:59:59.931Z,20.25
2019-02-10T02:02:30.208Z,20.08
2019-02-10T02:05:00.696Z,20.92
2019-02-10T02:07:31.144Z,20.60
2019-02-10T02:10:01.400Z,20.82
2019-02-10T02:12:32.961Z,21.60
2019-02-10T02:15:03.231Z,20.37
2019-02-10T02:17:33.601Z,20.75
2019-02-10T02:20:04.635Z,21.15
2019-02-10T02:22:34.900Z,21.62
2019-02-10T02:25:08.235Z,21.55
2019-02-10T02:27:38.566Z,21.90
2019-02-10T02:30:14.221Z,19.80
2019-02-10T02:32:44.591Z,20.43
2019-02-10T02:35:15.042Z,20.45
2019-02-10T02:37:45.331Z,19.98
2019-02-10T02:40:16.650Z,20.43
2019-02-10T02:42:46.921Z,21.15
2019-02-10T02:45:17.255Z,21.48
2019-02-10T02:47:47.486Z,20.80
2019-02-10T02:50:17.638Z,21.17
2019-02-10T02:52:47.863Z,21.42
2019-02-10T02:55:18.141Z,20.75
2019-02-10T02:57:48.385Z,20.57
2019-02-10T03:00:18.861Z,20.77
2019-02-10T03:02:49.411Z,18.85
2019-02-10T03:05:19.755Z,20.05
2019-02-10T03:07:49.980Z,20.70
2019-02-10T03:10:20.282Z,20.45
2019-02-10T03:12:50.510Z,20.40
2019-02-10T03:15:20.754Z,20.82
2019-02-10T03:17:51.033Z,20.20
2019-02-10T03:20:21.242Z,21.00
2019-02-10T03:22:52.428Z,20.15
2019-02-10T03:25:22.972Z,20.77
2019-02-10T03:27:53.287Z,20.95
2019-02-10T03:30:23.641Z,21.12
2019-02-10T03:32:54.045Z,20.52
2019-02-10T03:35:24.227Z,20.95
2019-02-10T03:37:54.435Z,21.25
2019-02-10T03:40:24.970Z,21.35
2019-02-10T03:42:55.297Z,22.07
2019-02-10T03:45:25.528Z,22.10
2019-02-10T03:47:56.000Z,22.58
2019-02-10T03:50:26.297Z,21.85
2019-02-10T03:52:56.601Z,22.00
2019-02-10T03:55:26.966Z,22.52
2019-02-10T03:57:57.173Z,20.23
2019-02-10T04:00:27.546Z,21.35
2019-02-10T04:02:57.836Z,21.60
2019-02-10T04:05:28.216Z,20.50
2019-02-10T04:07:59.442Z,22.05
2019-02-10T04:10:29.893Z,20.02
2019-02-10T04:13:00.157Z,22.52
2019-02-10T04:15:30.728Z,22.40
2019-02-10T04:18:00.968Z,22.05
2019-02-10T04:20:31.245Z,23.07
2019-02-10T04:23:01.458Z,22.32
2019-02-10T04:25:31.713Z,24.82
2019-02-10T04:28:01.927Z,22.65
2019-02-10T04:30:32.311Z,24.05
2019-02-10T04:33:02.610Z,23.18
2019-02-10T04:35:33.170Z,25.17
2019-02-10T04:38:06.057Z,23.07
2019-02-10T04:40:37.827Z,24.57
2019-02-10T04:43:08.050Z,23.70
2019-02-10T04:45:38.379Z,22.93
2019-02-10T04:48:08.752Z,22.30
2019-02-10T04:50:39.067Z,25.37
2019-02-10T04:53:09.318Z,24.40
2019-02-10T04:55:39.598Z,24.12
2019-02-10T04:58:09.921Z,25.48
2019-02-10T05:00:40.289Z,24.82
2019-02-10T05:03:10.379Z,23.55
2019-02-10T05:05:40.660Z,23.98
2019-02-10T05:08:10.987Z,23.75
2019-02-10T05:10:42.669Z,22.17
2019-02-10T05:13:13.163Z,23.18
2019-02-10T05:15:43.434Z,23.30
2019-02-10T05:18:13.652Z,22.82
2019-02-10T05:20:43.879Z,22.30
2019-02-10T05:23:15.096Z,23.10
2019-02-10T05:25:45.348Z,21.23
2019-02-10T05:28:15.769Z,22.30
2019-02-10T05:30:46.109Z,24.72
2019-02-10T05:33:16.445Z,23.75
2019-02-10T05:35:46.643Z,24.43
2019-02-10T05:38:16.963Z,24.75
2019-02-10T05:40:47.153Z,24.40
2019-02-10T05:43:18.575Z,24.25
2019-02-10T05:45:48.880Z,22.80
2019-02-10T05:48:19.137Z,23.20
2019-02-10T05:50:49.366Z,24.47
2019-02-10T05:53:19.564Z,24.20
2019-02-10T05:55:50.130Z,26.15
2019-02-10T05:58:20.798Z,24.77
2019-02-10T06:00:51.272Z,25.75
2019-02-10T06:03:21.617Z,24.95
2019-02-10T06:05:51.811Z,26.07
2019-02-10T06:08:22.060Z,25.55
2019-02-10T06:10:52.259Z,25.77
2019-02-10T06:13:22.521Z,25.05
2019-02-10T06:15:52.673Z,24.90
2019-02-10T06:18:22.982Z,24.67
2019-02-10T06:20:53.333Z,24.98
2019-02-10T06:23:24.585Z,26.87
2019-02-10T06:25:54.912Z,24.87
2019-02-10T06:28:25.206Z,24.30
2019-02-10T06:30:55.419Z,25.70
2019-02-10T06:33:25.637Z,26.25
2019-02-10T06:35:55.902Z,26.27
2019-02-10T06:38:26.281Z,25.08
2019-02-10T06:40:56.476Z,27.40
2019-02-10T06:43:26.737Z,26.25
2019-02-10T06:45:56.945Z,26.30
2019-02-10T06:48:27.187Z,28.65
2019-02-10T06:50:57.471Z,27.73
2019-02-10T06:53:27.858Z,28.55
2019-02-10T06:55:58.193Z,26.97
2019-02-10T06:58:28.461Z,28.45
2019-02-10T07:01:03.437Z,29.37
2019-02-10T07:03:49.799Z,29.42
2019-02-10T07:06:25.179Z,28.87
2019-02-10T07:08:56.966Z,30.10
2019-02-10T07:11:27.240Z,27.42
2019-02-10T07:13:58.690Z,29.02
2019-02-10T07:16:31.479Z,29.57
2019-02-10T07:19:38.211Z,28.50
2019-02-10T07:22:34.477Z,29.80
2019-02-10T07:25:14.044Z,32.78
2019-02-10T07:27:46.121Z,31.50
2019-02-10T07:30:19.375Z,26.57
2019-02-10T07:32:58.830Z,24.23
2019-02-10T07:35:43.703Z,33.63
2019-02-10T07:38:38.477Z,32.45
2019-02-10T07:41:09.347Z,31.80
2019-02-10T07:44:02.061Z,30.55
2019-02-10T07:46:56.669Z,30.88
2019-02-10T07:49:46.829Z,32.93
2019-02-10T07:52:44.276Z,30.77
2019-02-10T07:55:34.094Z,29.50
2019-02-10T07:58:19.688Z,28.02
2019-02-10T08:01:01.761Z,27.42
2019-02-10T08:03:52.767Z,27.22
2019-02-10T08:06:28.601Z,27.45
2019-02-10T08:09:05.170Z,28.02
2019-02-10T08:11:47.271Z,27.75
2019-02-10T08:14:26.363Z,28.60
2019-02-10T08:17:02.312Z,33.28
2019-02-10T08:19:56.594Z,30.15
2019-02-10T08:22:35.795Z,29.52
2019-02-10T08:25:24.008Z,27.75
2019-02-10T08:28:09.146Z,26.07
2019-02-10T08:30:42.368Z,23.10
2019-02-10T08:33:18.243Z,26.85
2019-02-10T08:36:12.500Z,25.72
2019-02-10T08:39:05.473Z,25.52
2019-02-10T08:41:47.543Z,24.87
2019-02-10T08:44:28.633Z,25.37
2019-02-10T08:47:23.952Z,25.80
2019-02-10T08:50:13.762Z,23.22
2019-02-10T08:52:52.579Z,23.57
2019-02-10T08:55:22.786Z,23.30
2019-02-10T08:57:53.241Z,22.10
2019-02-10T09:00:23.540Z,21.87
2019-02-10T09:02:53.832Z,20.92
2019-02-10T09:05:24.049Z,22.25
2019-02-10T09:07:55.457Z,23.73
2019-02-10T09:10:25.900Z,22.52
2019-02-10T09:12:56.132Z,21.50
2019-02-10T09:15:26.648Z,21.80
2019-02-10T09:17:56.905Z,20.90
2019-02-10T09:20:27.209Z,20.60
2019-02-10T09:22:57.669Z,21.60
2019-02-10T09:25:28.238Z,20.08
2019-02-10T09:27:58.538Z,18.52
2019-02-10T09:30:28.901Z,17.77
2019-02-10T09:32:59.116Z,16.45
2019-02-10T09:35:29.491Z,16.37
2019-02-10T09:37:59.981Z,14.18
2019-02-10T09:40:32.446Z,11.53
2019-02-10T09:43:02.788Z,12.53
2019-02-10T09:45:33.113Z,11.97
2019-02-10T09:48:03.465Z,11.83
2019-02-10T09:50:34.235Z,12.07
2019-02-10T09:53:04.568Z,8.58
2019-02-10T09:55:34.706Z,8.43
2019-02-10T09:58:04.951Z,8.95
2019-02-10T10:00:35.341Z,8.33
2019-02-10T10:03:05.754Z,8.85
2019-02-10T10:05:35.968Z,8.58
2019-02-10T10:08:06.247Z,9.68
2019-02-10T10:10:36.634Z,9.73
2019-02-10T10:13:06.954Z,9.45
2019-02-10T10:15:37.281Z,9.38
2019-02-10T10:18:07.608Z,9.70
2019-02-10T10:20:38.077Z,9.78
2019-02-10T10:23:08.699Z,9.70
2019-02-10T10:25:40.350Z,10.55
2019-02-10T10:28:10.812Z,9.85
2019-02-10T10:30:41.107Z,9.15
2019-02-10T10:33:11.425Z,8.95
2019-02-10T10:35:41.655Z,8.73
2019-02-10T10:38:12.085Z,8.18
2019-02-10T10:40:42.555Z,8.20
2019-02-10T10:43:12.983Z,7.90
2019-02-10T10:45:43.603Z,8.30
2019-02-10T10:48:14.012Z,8.38
2019-02-10T10:50:44.694Z,7.53
2019-02-10T10:53:15.219Z,8.18
2019-02-10T10:55:45.501Z,8.30
2019-02-10T10:58:15.940Z,7.78
2019-02-10T11:00:46.215Z,7.08
2019-02-10T11:03:17.331Z,7.62
2019-02-10T11:05:47.603Z,7.70
2019-02-10T11:08:18.028Z,7.05
2019-02-10T11:10:48.357Z,7.25
2019-02-10T11:13:18.906Z,7.33
2019-02-10T11:15:49.246Z,6.75
2019-02-10T11:18:20.750Z,6.53
2019-02-10T11:20:51.033Z,6.30
2019-02-10T11:23:21.580Z,5.53
2019-02-10T11:25:53.706Z,6.42
2019-02-10T11:28:24.043Z,5.85
2019-02-10T11:30:54.547Z,6.03
2019-02-10T11:33:24.849Z,5.80
2019-02-10T11:35:55.364Z,5.45
2019-02-10T11:38:25.618Z,5.97
2019-02-10T11:40:55.947Z,5.50
2019-02-10T11:43:26.231Z,5.35
2019-02-10T11:45:56.622Z,6.62
2019-02-10T11:48:26.870Z,6.70
2019-02-10T11:50:57.110Z,5.90
2019-02-10T11:53:27.359Z,6.20
2019-02-10T11:55:57.584Z,6.67
2019-02-10T11:58:27.775Z,6.67
2019-02-10T12:00:58.240Z,9.35
2019-02-10T12:03:28.456Z,8.08
2019-02-10T12:05:59.590Z,7.65
2019-02-10T12:08:35.718Z,8.10
2019-02-10T12:11:01.672Z,7.70
2019-02-10T12:13:31.919Z,7.37
2019-02-10T12:16:02.116Z,7.30
2019-02-10T12:18:32.336Z,7.85
2019-02-10T12:21:02.611Z,7.65
2019-02-10T12:23:32.794Z,8.03
2019-02-10T12:26:02.901Z,7.75
2019-02-10T12:28:34.211Z,7.03
2019-02-10T12:31:04.468Z,7.83
2019-02-10T12:33:34.761Z,7.20
2019-02-10T12:36:04.981Z,6.40
2019-02-10T12:38:35.118Z,7.25
2019-02-10T12:41:05.702Z,6.87
2019-02-10T12:43:36.000Z,6.78
2019-02-10T12:46:06.256Z,6.65
2019-02-10T12:48:36.491Z,6.60
2019-02-10T12:51:06.893Z,6.87
2019-02-10T12:53:36.979Z,7.45
2019-02-10T12:56:07.214Z,6.75
2019-02-10T12:58:37.417Z,7.10
2019-02-10T13:01:07.705Z,7.45
2019-02-10T13:03:37.942Z,7.33
2019-02-10T13:06:08.143Z,6.95
2019-02-10T13:08:38.356Z,7.12
2019-02-10T13:11:08.570Z,7.22
2019-02-10T13:13:39.906Z,6.75
2019-02-10T13:16:10.109Z,7.15
2019-02-10T13:18:40.523Z,6.85
2019-02-10T13:21:10.738Z,6.70
2019-02-10T13:23:40.971Z,6.55
2019-02-10T13:26:11.319Z,7.53
2019-02-10T13:28:42.508Z,6.85
2019-02-10T13:31:12.698Z,6.60
2019-02-10T13:33:42.943Z,7.10
2019-02-10T13:36:13.236Z,6.90
2019-02-10T13:38:43.411Z,6.75
2019-02-10T13:41:13.590Z,6.22
2019-02-10T13:43:43.830Z,6.87
2019-02-10T13:46:13.963Z,6.83
2019-02-10T13:48:44.184Z,7.17
2019-02-10T13:51:15.573Z,6.90
2019-02-10T13:53:45.927Z,7.12
2019-02-10T13:56:16.074Z,6.40
2019-02-10T13:58:46.279Z,7.37
2019-02-10T14:01:16.487Z,6.92
2019-02-10T14:03:46.635Z,7.22
2019-02-10T14:06:16.772Z,6.87
2019-02-10T14:08:46.838Z,6.97
2019-02-10T14:11:18.241Z,8.40
2019-02-10T14:13:48.567Z,8.03
2019-02-10T14:16:18.819Z,7.80
2019-02-10T14:18:49.021Z,7.05
2019-02-10T14:21:19.298Z,7.72
2019-02-10T14:23:49.658Z,7.85
2019-02-10T14:26:19.867Z,7.60
2019-02-10T14:28:51.002Z,7.58
2019-02-10T14:31:21.211Z,7.47
2019-02-10T14:33:51.369Z,8.73
2019-02-10T14:36:21.572Z,8.35
2019-02-10T14:38:51.721Z,7.62
2019-02-10T14:41:21.926Z,8.68
2019-02-10T14:43:52.136Z,9.15
2019-02-10T14:46:22.448Z,9.18
2019-02-10T14:48:52.584Z,9.48
2019-02-10T14:51:23.242Z,10.15
2019-02-10T14:53:53.344Z,8.90
2019-02-10T14:56:23.665Z,9.28
2019-02-10T14:58:53.887Z,10.38
2019-02-10T15:01:24.230Z,9.50
2019-02-10T15:03:54.496Z,10.25
2019-02-10T15:06:24.767Z,9.73
2019-02-10T15:08:55.067Z,10.38
2019-02-10T15:11:25.269Z,10.53
2019-02-10T15:13:55.746Z,10.53
2019-02-10T15:16:26.121Z,11.45
2019-02-10T15:18:56.399Z,11.12
2019-02-10T15:21:26.963Z,11.73
2019-02-10T15:23:57.481Z,10.72
2019-02-10T15:26:27.713Z,11.12
2019-02-10T15:28:59.058Z,11.03
2019-02-10T15:31:29.395Z,11.93
2019-02-10T15:33:59.759Z,11.15
2019-02-10T15:36:30.896Z,11.20
2019-02-10T15:39:01.185Z,11.40
2019-02-10T15:41:32.865Z,12.05
2019-02-10T15:44:02.997Z,13.18
2019-02-10T15:46:33.303Z,12.80
2019-02-10T15:49:03.591Z,11.83
2019-02-10T15:51:37.176Z,12.58
2019-02-10T15:54:05.842Z,12.33
2019-02-10T15:56:36.064Z,12.53
2019-02-10T15:59:06.368Z,12.43
2019-02-10T16:01:37.002Z,11.65
2019-02-10T16:04:07.312Z,11.95
2019-02-10T16:06:37.503Z,13.30
2019-02-10T16:09:07.854Z,13.43
2019-02-10T16:11:38.175Z,12.95
2019-02-10T16:14:08.470Z,13.13
2019-02-10T16:16:39.003Z,13.48
2019-02-10T16:19:09.145Z,12.25
2019-02-10T16:21:39.383Z,12.10
2019-02-10T16:24:09.746Z,13.00
2019-02-10T16:26:39.943Z,13.75
2019-02-10T16:29:11.896Z,14.58
2019-02-10T16:31:42.329Z,14.38
2019-02-10T16:34:12.886Z,13.25
2019-02-10T16:36:43.052Z,14.20
2019-02-10T16:39:13.293Z,15.10
2019-02-10T16:41:43.579Z,13.93
2019-02-10T16:44:13.842Z,13.83
2019-02-10T16:46:45.134Z,13.85
2019-02-10T16:49:15.325Z,13.38
2019-02-10T16:51:45.620Z,13.05
2019-02-10T16:54:15.770Z,13.05
2019-02-10T16:56:45.981Z,13.58
2019-02-10T16:59:16.295Z,13.32
2019-02-10T17:01:46.479Z,13.40
2019-02-10T17:04:16.631Z,13.55
2019-02-10T17:06:46.993Z,14.60
2019-02-10T17:09:17.433Z,14.75
2019-02-10T17:11:48.093Z,15.85
2019-02-10T17:14:19.949Z,15.55
2019-02-10T17:16:50.255Z,14.95
2019-02-10T17:19:20.459Z,15.28
2019-02-10T17:21:50.672Z,14.90
2019-02-10T17:24:20.879Z,14.80
2019-02-10T17:26:51.070Z,13.90
2019-02-10T17:29:22.384Z,13.28
2019-02-10T17:31:52.641Z,15.72
2019-02-10T17:34:22.861Z,16.77
2019-02-10T17:36:53.105Z,17.65
2019-02-10T17:39:23.656Z,17.62
2019-02-10T17:41:53.795Z,18.45
2019-02-10T17:44:23.875Z,17.70
2019-02-10T17:46:54.099Z,18.55
2019-02-10T17:49:24.446Z,18.73
2019-02-10T17:51:54.771Z,19.32
2019-02-10T17:54:25.045Z,19.30
2019-02-10T17:56:55.413Z,19.75
2019-02-10T17:59:25.767Z,19.42
2019-02-10T18:01:56.101Z,19.67
2019-02-10T18:04:27.321Z,19.45
2019-02-10T18:06:58.828Z,19.50
2019-02-10T18:09:29.159Z,20.15
2019-02-10T18:11:59.470Z,21.45
2019-02-10T18:14:34.138Z,22.20
2019-02-10T18:17:21.192Z,22.82
2019-02-10T18:20:09.574Z,22.45
2019-02-10T18:22:47.430Z,22.25
2019-02-10T18:25:28.043Z,23.47
2019-02-10T18:28:05.672Z,25.08
2019-02-10T18:30:49.817Z,23.67
2019-02-10T18:33:27.622Z,23.98
2019-02-10T18:36:05.215Z,21.90
2019-02-10T18:38:49.174Z,23.05
2019-02-10T18:41:30.150Z,25.90
2019-02-10T18:44:05.106Z,24.50
2019-02-10T18:46:36.966Z,24.18
2019-02-10T18:49:18.298Z,24.92
2019-02-10T18:51:59.341Z,24.07
2019-02-10T18:54:49.631Z,24.98
2019-02-10T18:57:21.491Z,24.02
2019-02-10T18:59:53.391Z,24.47
2019-02-10T19:02:28.175Z,23.67
2019-02-10T19:05:02.844Z,24.18
2019-02-10T19:07:52.874Z,23.77
2019-02-10T19:10:39.898Z,22.93
2019-02-10T19:13:11.842Z,23.47
2019-02-10T19:15:46.740Z,22.55
2019-02-10T19:18:21.813Z,22.30
2019-02-10T19:20:53.798Z,22.15
2019-02-10T19:23:41.785Z,23.45
2019-02-10T19:26:16.484Z,22.85
2019-02-10T19:28:57.323Z,23.05
2019-02-10T19:31:32.927Z,20.77
2019-02-10T19:34:07.585Z,21.57
2019-02-10T19:36:58.015Z,21.50
2019-02-10T19:39:29.965Z,22.62
2019-02-10T19:42:18.229Z,23.83
2019-02-10T19:44:50.190Z,23.55
2019-02-10T19:47:38.233Z,23.40
2019-02-10T19:50:13.430Z,22.82
2019-02-10T19:53:01.356Z,21.85
2019-02-10T19:55:33.315Z,22.17
2019-02-10T19:58:10.990Z,21.07
2019-02-10T20:00:54.996Z,20.30
2019-02-10T20:03:39.024Z,21.77
2019-02-10T20:06:13.973Z,21.23
2019-02-10T20:08:45.944Z,22.45
2019-02-10T20:11:17.890Z,24.43
2019-02-10T20:13:49.735Z,21.95
2019-02-10T20:16:24.356Z,19.45
2019-02-10T20:19:11.630Z,17.92
2019-02-10T20:21:52.251Z,17.65
2019-02-10T20:24:42.423Z,15.98
2019-02-10T20:27:26.727Z,18.10
2019-02-10T20:30:04.898Z,16.37
2019-02-10T20:32:45.817Z,15.50
2019-02-10T20:35:33.853Z,15.70
2019-02-10T20:38:08.431Z,15.23
2019-02-10T20:40:56.659Z,15.70
2019-02-10T20:43:28.662Z,14.80
2019-02-10T20:46:06.622Z,14.25
2019-02-10T20:48:41.529Z,15.18
2019-02-10T20:51:13.478Z,14.13
2019-02-10T20:53:45.824Z,15.30
2019-02-10T20:56:18.087Z,14.93
2019-02-10T20:58:50.203Z,15.25
2019-02-10T21:01:25.220Z,15.43
2019-02-10T21:04:03.219Z,14.58
2019-02-10T21:06:47.496Z,15.30
2019-02-10T21:09:19.370Z,15.00
2019-02-10T21:11:51.394Z,15.23
2019-02-10T21:14:39.829Z,14.47
2019-02-10T21:17:23.766Z,14.83
2019-02-10T21:20:12.336Z,15.60
2019-02-10T21:22:53.370Z,15.35
2019-02-10T21:25:28.322Z,18.57
2019-02-10T21:28:12.619Z,19.75
2019-02-10T21:31:01.095Z,21.20
2019-02-10T21:33:49.375Z,22.93
2019-02-10T21:36:24.365Z,24.77
2019-02-10T21:39:12.907Z,21.80
2019-02-10T21:42:00.003Z,24.32
2019-02-10T21:44:39.067Z,24.02
2019-02-10T21:47:10.875Z,27.25
2019-02-10T21:49:41.139Z,27.42
2019-02-10T21:52:11.423Z,26.97
2019-02-10T21:54:41.579Z,27.87
2019-02-10T21:57:12.706Z,28.47
2019-02-10T21:59:44.742Z,29.32
2019-02-10T22:02:14.944Z,27.67
2019-02-10T22:04:45.259Z,28.77
2019-02-10T22:07:15.746Z,28.90
2019-02-10T22:09:46.226Z,28.30
2019-02-10T22:12:16.523Z,28.65
2019-02-10T22:14:46.725Z,28.75
2019-02-10T22:17:16.899Z,27.65
2019-02-10T22:19:47.207Z,27.87
2019-02-10T22:22:17.470Z,28.00
2019-02-10T22:24:47.669Z,28.35
2019-02-10T22:27:17.959Z,27.42
2019-02-10T22:29:48.422Z,28.67
2019-02-10T22:32:19.682Z,27.93
2019-02-10T22:34:50.201Z,30.70
2019-02-10T22:37:20.408Z,32.33
2019-02-10T22:39:50.853Z,32.83
2019-02-10T22:42:21.158Z,32.50
2019-02-10T22:44:51.481Z,33.83
2019-02-10T22:47:22.763Z,33.42
2019-02-10T22:49:53.075Z,32.25
2019-02-10T22:52:23.474Z,29.27
2019-02-10T22:54:53.798Z,28.98
2019-02-10T22:57:24.123Z,29.30
2019-02-10T22:59:54.691Z,23.60
2019-02-10T23:02:25.058Z,24.32
2019-02-10T23:04:55.471Z,22.13
2019-02-10T23:07:25.683Z,20.48
2019-02-10T23:09:56.353Z,20.12
2019-02-10T23:12:26.658Z,17.52
2019-02-10T23:14:57.161Z,16.48
2019-02-10T23:17:27.351Z,16.95
2019-02-10T23:19:57.767Z,16.57
2019-02-10T23:22:28.083Z,16.77
2019-02-10T23:24:58.605Z,17.20
2019-02-10T23:27:28.935Z,17.12
2019-02-10T23:29:59.731Z,17.37
2019-02-10T23:32:29.932Z,16.20
2019-02-10T23:35:00.365Z,16.67
2019-02-10T23:37:30.638Z,16.50
2019-02-10T23:40:03.017Z,15.55
2019-02-10T23:42:32.854Z,11.22
2019-02-10T23:45:03.102Z,16.23
2019-02-10T23:47:33.255Z,17.48
2019-02-10T23:50:03.477Z,17.73
2019-02-10T23:52:33.702Z,17.00
2019-02-10T23:55:04.672Z,16.48
2019-02-10T23:57:35.246Z,17.07
